Time;durP1;ratioP1;P1;durP2;ratioP2;P2;SDS_P1;SDS_P2;PMS_P1;PMS_P2;Temp;Humidity;BMP_temperature;BMP_pressure;BME280_temperature;BME280_humidity;BME280_pressure;Samples;Min_cycle;Max_cycle;Signal;HPM_P1;HPM_P2
2023/04/17 00:00:19;;;;;;;9.13;5.10;;;;;;;12.63;81.23;96435.59;5075145;28;20206;-70
2023/04/17 00:02:46;;;;;;;8.50;5.00;;;;;;;12.71;80.69;96441.16;5093560;28;20235;-70
2023/04/17 00:05:15;;;;;;;8.23;5.20;;;;;;;12.56;80.48;96439.53;5092856;28;20198;-70
2023/04/17 00:07:43;;;;;;;6.70;5.00;;;;;;;12.55;80.72;96440.44;5088320;28;20205;-70
2023/04/17 00:10:11;;;;;;;6.67;4.60;;;;;;;12.48;80.67;96433.13;5086925;28;20214;-71
2023/04/17 00:12:38;;;;;;;9.13;5.43;;;;;;;12.47;80.63;96431.50;5093396;28;20313;-70
2023/04/17 00:15:06;;;;;;;7.53;4.60;;;;;;;12.49;80.51;96432.22;5093009;28;20698;-70
2023/04/17 00:17:33;;;;;;;6.63;4.50;;;;;;;12.46;80.50;96433.25;5093220;28;20218;-70
2023/04/17 00:20:00;;;;;;;8.23;5.07;;;;;;;11.75;82.91;96436.81;5078890;28;20663;-70
2023/04/17 00:22:29;;;;;;;8.70;5.33;;;;;;;11.94;82.43;96425.25;5076719;28;20225;-71
2023/04/17 00:24:56;;;;;;;7.63;5.43;;;;;;;11.93;82.86;96430.53;5082257;28;20203;-72
2023/04/17 00:27:24;;;;;;;7.50;5.37;;;;;;;11.72;83.75;96431.81;5091039;28;20227;-71
2023/04/17 00:29:51;;;;;;;8.07;5.23;;;;;;;11.85;83.49;96436.16;5092790;28;20205;-70
2023/04/17 00:32:19;;;;;;;10.03;5.03;;;;;;;12.00;82.37;96421.44;5092814;28;20229;-70
2023/04/17 00:34:46;;;;;;;7.37;4.73;;;;;;;12.12;82.56;96431.06;5093500;28;20197;-70
2023/04/17 00:37:13;;;;;;;6.87;4.53;;;;;;;12.08;82.10;96429.59;5075648;28;20195;-70
2023/04/17 00:39:40;;;;;;;9.43;4.90;;;;;;;11.99;81.66;96430.16;5079318;28;20224;-69
2023/04/17 00:42:07;;;;;;;6.13;4.90;;;;;;;12.02;81.49;96435.16;5073461;28;20233;-69
2023/04/17 00:44:34;;;;;;;7.30;4.97;;;;;;;12.02;81.74;96428.22;5072395;28;20640;-70
2023/04/17 00:47:01;;;;;;;6.83;4.47;;;;;;;12.04;81.92;96428.09;5072706;28;20236;-70
2023/04/17 00:49:29;;;;;;;7.83;4.83;;;;;;;12.13;80.96;96418.00;5072457;28;20659;-69
2023/04/17 00:51:56;;;;;;;10.90;5.60;;;;;;;11.87;82.58;96420.53;5054681;28;20197;-69
2023/04/17 00:54:23;;;;;;;7.37;5.60;;;;;;;11.76;83.68;96425.53;5072947;28;20201;-69
2023/04/17 00:56:55;;;;;;;10.93;6.13;;;;;;;11.71;83.99;96411.97;5050790;28;20288;-70
2023/04/17 00:59:23;;;;;;;8.23;5.47;;;;;;;11.67;85.16;96407.91;5051918;28;20206;-71
2023/04/17 01:01:50;;;;;;;8.60;6.20;;;;;;;11.64;85.19;96419.28;5069051;28;20228;-71
2023/04/17 01:04:17;;;;;;;9.80;6.13;;;;;;;11.76;84.89;96417.75;5069474;28;20194;-70
2023/04/17 01:06:46;;;;;;;8.40;5.33;;;;;;;11.74;84.90;96409.22;5069281;28;20199;-68
2023/04/17 01:09:13;;;;;;;7.90;6.00;;;;;;;11.76;83.99;96408.22;5081412;28;20211;-71
2023/04/17 01:11:40;;;;;;;8.90;5.27;;;;;;;11.99;83.14;96412.00;5071603;28;20198;-69
2023/04/17 01:14:07;;;;;;;10.20;6.43;;;;;;;11.77;83.30;96407.25;5070965;28;20202;-69
2023/04/17 01:16:37;;;;;;;9.00;6.00;;;;;;;11.71;83.88;96415.41;5071615;28;20205;-70
2023/04/17 01:19:07;;;;;;;8.80;5.93;;;;;;;11.88;83.70;96410.06;5071011;28;20230;-69
2023/04/17 01:21:34;;;;;;;8.77;5.93;;;;;;;12.05;82.09;96414.22;5071053;28;20254;-70
2023/04/17 01:24:02;;;;;;;8.37;5.80;;;;;;;12.03;81.24;96405.69;5089335;28;20193;-69
2023/04/17 01:26:31;;;;;;;11.40;6.47;;;;;;;12.03;81.80;96413.47;5071104;28;20281;-70
2023/04/17 01:28:59;;;;;;;11.10;6.63;;;;;;;12.05;80.98;96415.06;5071105;28;20208;-69
2023/04/17 01:31:28;;;;;;;10.47;6.23;;;;;;;12.03;81.15;96411.72;5070387;28;20676;-70
2023/04/17 01:33:55;;;;;;;10.60;6.70;;;;;;;12.10;81.29;96409.56;5071729;28;20583;-70
2023/04/17 01:36:22;;;;;;;7.07;5.87;;;;;;;12.15;81.52;96416.16;5088920;28;20240;-70
2023/04/17 01:38:49;;;;;;;8.13;5.80;;;;;;;12.16;81.62;96397.03;5070877;28;20205;-70
2023/04/17 01:41:17;;;;;;;8.50;5.80;;;;;;;12.12;82.10;96384.34;5070527;28;20228;-70
2023/04/17 01:43:46;;;;;;;7.50;6.13;;;;;;;12.04;81.46;96391.78;5088729;28;20225;-70
2023/04/17 01:46:13;;;;;;;10.03;6.43;;;;;;;11.87;81.44;96389.41;5089049;28;20685;-71
2023/04/17 01:48:40;;;;;;;10.73;5.73;;;;;;;11.89;81.68;96403.13;5088505;28;20193;-71
2023/04/17 01:51:08;;;;;;;7.47;6.00;;;;;;;11.93;81.47;96404.59;5089104;28;20202;-71
2023/04/17 01:53:35;;;;;;;8.30;5.47;;;;;;;12.02;81.90;96396.22;5088528;28;20282;-71
2023/04/17 01:56:02;;;;;;;11.03;5.67;;;;;;;12.09;81.17;96400.97;5088771;28;20197;-70
2023/04/17 01:58:30;;;;;;;7.47;5.40;;;;;;;12.13;81.68;96396.41;5070427;28;20203;-71
2023/04/17 02:00:58;;;;;;;12.10;5.57;;;;;;;12.13;81.57;96383.44;5070537;28;20200;-71
2023/04/17 02:03:25;;;;;;;8.93;5.50;;;;;;;12.13;81.73;96391.22;5088579;28;20254;-70
2023/04/17 02:05:53;;;;;;;8.47;5.23;;;;;;;12.15;81.28;96395.38;5087963;28;20284;-71
2023/04/17 02:08:20;;;;;;;10.10;6.27;;;;;;;12.12;80.93;96389.53;5088419;28;20201;-70
2023/04/17 02:10:47;;;;;;;8.37;6.03;;;;;;;12.05;81.95;96393.44;5087933;28;20230;-70
2023/04/17 02:13:15;;;;;;;9.67;6.20;;;;;;;12.12;81.49;96399.91;5070277;28;20235;-70
2023/04/17 02:15:43;;;;;;;8.63;6.87;;;;;;;12.14;81.85;96388.50;5088187;28;20592;-70
2023/04/17 02:18:31;;;;;;;9.80;6.47;;;;;;;12.15;81.65;96394.53;5072833;28;20204;-70
2023/04/17 02:20:59;;;;;;;9.17;6.73;;;;;;;12.16;81.49;96397.03;5070395;28;20608;-70
2023/04/17 02:23:26;;;;;;;8.73;6.53;;;;;;;12.16;81.39;96401.38;5087441;28;20256;-69
2023/04/17 02:25:53;;;;;;;9.40;6.90;;;;;;;12.28;81.06;96395.47;5070260;28;20200;-69
2023/04/17 02:28:20;;;;;;;11.33;6.30;;;;;;;12.28;81.06;96400.66;5087733;28;20209;-68
2023/04/17 02:30:47;;;;;;;9.60;6.47;;;;;;;12.12;80.79;96400.75;5087956;28;20205;-68
2023/04/17 02:33:14;;;;;;;8.43;6.63;;;;;;;12.04;81.42;96395.22;5069735;28;20197;-70
2023/04/17 02:35:41;;;;;;;10.60;6.87;;;;;;;12.13;81.73;96409.38;5069528;28;20672;-69
2023/04/17 02:38:08;;;;;;;10.37;7.93;;;;;;;12.05;81.82;96435.81;5087898;28;20196;-71
2023/04/17 02:40:36;;;;;;;10.50;6.60;;;;;;;11.97;83.00;96406.06;5069201;28;20202;-70
2023/04/17 02:43:03;;;;;;;9.80;6.73;;;;;;;11.64;84.46;96402.88;5088053;28;20231;-70
2023/04/17 02:45:30;;;;;;;12.67;7.33;;;;;;;11.25;87.42;96383.56;5069484;28;20197;-69
2023/04/17 02:47:57;;;;;;;9.77;6.80;;;;;;;11.04;87.43;96376.25;5069555;28;20204;-70
2023/04/17 02:50:24;;;;;;;12.13;7.70;;;;;;;11.04;88.96;96369.31;5069330;28;20205;-69
2023/04/17 02:53:06;;;;;;;11.50;7.70;;;;;;;10.93;90.86;96363.91;5069114;28;20200;-69
2023/04/17 02:55:33;;;;;;;8.87;6.37;;;;;;;10.91;92.18;96360.56;5065667;28;20215;-70
2023/04/17 02:58:00;;;;;;;13.73;7.07;;;;;;;10.91;92.65;96363.16;5066723;28;20220;-70
2023/04/17 03:00:27;;;;;;;8.63;5.90;;;;;;;10.79;93.31;96382.00;5067358;28;20229;-70
2023/04/17 03:02:55;;;;;;;8.37;6.60;;;;;;;11.11;93.09;96393.91;5049062;28;20224;-70
2023/04/17 03:05:22;;;;;;;11.70;6.63;;;;;;;11.25;92.53;96387.94;5049166;28;20738;-71
2023/04/17 03:07:51;;;;;;;12.37;7.00;;;;;;;11.50;91.43;96390.72;5049042;28;20611;-69
2023/04/17 03:10:19;;;;;;;10.53;7.23;;;;;;;11.71;91.00;96399.00;5049085;28;20253;-71
2023/04/17 03:12:46;;;;;;;12.80;7.40;;;;;;;11.84;89.92;96389.56;5049578;28;20205;-71
2023/04/17 03:15:13;;;;;;;9.03;6.33;;;;;;;11.84;89.24;96386.97;5066669;28;20232;-70
2023/04/17 03:17:41;;;;;;;13.70;7.83;;;;;;;11.92;89.26;96384.75;5068667;28;20602;-71
2023/04/17 03:20:08;;;;;;;14.60;7.97;;;;;;;11.96;88.83;96394.00;5068101;28;20228;-71
2023/04/17 03:22:35;;;;;;;9.37;7.00;;;;;;;11.96;88.83;96389.66;5068701;28;20236;-71
2023/04/17 03:25:05;;;;;;;9.63;6.90;;;;;;;12.03;88.78;96401.34;5068930;28;20556;-71
2023/04/17 03:27:46;;;;;;;10.77;7.17;;;;;;;12.02;88.25;96401.41;5068564;28;20203;-71
2023/04/17 03:30:14;;;;;;;9.17;7.10;;;;;;;12.02;88.06;96406.59;5069500;28;20714;-71
2023/04/17 03:32:46;;;;;;;9.60;6.70;;;;;;;11.92;87.50;96416.72;5068462;28;20276;-70
2023/04/17 03:35:13;;;;;;;11.13;7.13;;;;;;;11.73;89.99;96410.13;5087230;28;20200;-70
2023/04/17 03:37:41;;;;;;;11.70;6.80;;;;;;;11.69;90.46;96416.44;5051791;28;20192;-70
2023/04/17 03:40:08;;;;;;;12.73;8.10;;;;;;;11.90;89.48;96425.53;5086984;28;20204;-71
2023/04/17 03:42:35;;;;;;;12.53;7.53;;;;;;;11.97;89.75;96437.22;5068969;28;20232;-70
2023/04/17 03:45:03;;;;;;;11.47;8.33;;;;;;;11.94;88.93;96437.38;5068324;28;20206;-70
2023/04/17 03:47:32;;;;;;;17.37;9.63;;;;;;;11.87;89.61;96447.28;5069318;28;20200;-71
2023/04/17 03:50:00;;;;;;;13.70;8.47;;;;;;;11.67;90.03;96439.88;5068239;28;20241;-70
2023/04/17 03:52:32;;;;;;;13.27;7.53;;;;;;;11.54;90.69;96431.09;5068786;28;20205;-69
2023/04/17 03:54:59;;;;;;;13.30;8.53;;;;;;;11.17;92.04;96435.03;5068422;28;20196;-70
2023/04/17 03:57:26;;;;;;;15.00;9.80;;;;;;;10.96;92.59;96425.91;5068501;28;20196;-70
2023/04/17 03:59:53;;;;;;;15.90;8.70;;;;;;;11.00;94.17;96427.41;5086629;28;20690;-71
2023/04/17 04:02:21;;;;;;;23.40;12.43;;;;;;;10.82;96.23;96406.91;5068110;28;20213;-70
2023/04/17 04:04:50;;;;;;;17.67;9.27;;;;;;;10.76;97.22;96402.88;5052429;28;20204;-70
2023/04/17 04:07:17;;;;;;;12.63;9.33;;;;;;;10.81;97.41;96353.41;5086259;28;20201;-70
2023/04/17 04:09:45;;;;;;;13.27;8.30;;;;;;;10.96;97.82;96353.38;5068629;28;20204;-70
2023/04/17 04:12:11;;;;;;;12.23;8.00;;;;;;;11.05;97.79;96360.59;5068318;28;20223;-71
2023/04/17 04:14:42;;;;;;;12.00;8.47;;;;;;;11.18;97.22;96355.53;5068258;28;20204;-71
2023/04/17 04:17:10;;;;;;;9.83;6.63;;;;;;;11.21;96.01;96363.13;5068654;28;20197;-71
2023/04/17 04:19:38;;;;;;;10.70;6.43;;;;;;;11.34;95.46;96364.06;5068018;28;20192;-70
2023/04/17 04:22:05;;;;;;;7.80;6.30;;;;;;;11.50;94.49;96369.19;5068446;28;20243;-70
2023/04/17 04:24:48;;;;;;;10.90;6.97;;;;;;;11.78;93.31;96385.59;5068288;28;20197;-71
2023/04/17 04:27:21;;;;;;;8.10;6.13;;;;;;;11.98;93.37;96392.16;5068726;28;20204;-70
2023/04/17 04:29:49;;;;;;;10.20;7.10;;;;;;;11.90;93.16;96387.44;5068205;28;20208;-69
2023/04/17 04:32:19;;;;;;;17.70;8.37;;;;;;;11.88;92.95;96389.31;5071154;28;20197;-70
2023/04/17 04:34:48;;;;;;;10.37;7.60;;;;;;;11.62;92.73;96376.22;5072385;28;20223;-70
2023/04/17 04:37:16;;;;;;;10.27;7.07;;;;;;;11.62;92.99;96373.63;5071251;28;20284;-69
2023/04/17 04:39:46;;;;;;;14.27;7.63;;;;;;;11.64;93.19;96382.16;5090183;28;20193;-69
2023/04/17 04:42:20;;;;;;;10.37;7.37;;;;;;;11.73;92.46;96387.63;5071811;28;20308;-69
2023/04/17 04:45:08;;;;;;;8.87;6.83;;;;;;;11.62;91.34;96390.03;5071651;28;20194;-70
2023/04/17 04:47:35;;;;;;;12.27;7.97;;;;;;;11.43;92.77;96390.28;5090502;28;20245;-70
2023/04/17 04:50:02;;;;;;;10.53;7.07;;;;;;;11.55;93.04;96390.47;5089173;28;20202;-70
2023/04/17 04:52:33;;;;;;;10.63;7.20;;;;;;;11.52;92.42;96377.69;5072651;28;20209;-70
2023/04/17 04:55:06;;;;;;;12.27;7.80;;;;;;;11.67;92.49;96392.34;5071196;28;20295;-69
2023/04/17 04:57:36;;;;;;;11.30;7.30;;;;;;;11.69;91.50;96401.72;5071337;28;20665;-70
2023/04/17 05:00:08;;;;;;;13.30;8.00;;;;;;;11.74;91.13;96396.25;5089633;28;20193;-69
2023/04/17 05:02:38;;;;;;;9.73;7.10;;;;;;;11.82;91.43;96399.22;5070877;28;20278;-69
2023/04/17 05:05:09;;;;;;;11.80;7.53;;;;;;;11.76;91.76;96395.25;5105504;28;20198;-70
2023/04/17 05:07:36;;;;;;;11.17;7.37;;;;;;;11.90;91.50;96409.94;5089070;28;20189;-69
2023/04/17 05:10:06;;;;;;;12.07;7.60;;;;;;;11.92;91.43;96415.88;5071630;28;20279;-70
2023/04/17 05:12:37;;;;;;;11.30;8.60;;;;;;;11.91;91.44;96417.63;5071040;28;20196;-70
2023/04/17 05:15:07;;;;;;;11.40;7.73;;;;;;;12.10;91.20;96433.75;5071045;28;20201;-69
2023/04/17 05:17:35;;;;;;;12.00;8.60;;;;;;;12.06;91.38;96428.84;5071234;28;20211;-69
2023/04/17 05:20:05;;;;;;;10.07;7.70;;;;;;;12.11;90.96;96424.22;5070631;28;20660;-69
2023/04/17 05:22:35;;;;;;;11.73;7.97;;;;;;;12.11;91.28;96421.63;5058765;28;20247;-70
2023/04/17 05:25:07;;;;;;;11.27;8.40;;;;;;;12.22;90.71;96427.81;5054232;28;20194;-70
2023/04/17 05:27:35;;;;;;;14.23;8.93;;;;;;;12.32;90.62;96433.28;5086368;28;20204;-70
2023/04/17 05:30:02;;;;;;;13.43;8.73;;;;;;;12.35;90.21;96438.25;5070071;28;20235;-68
2023/04/17 05:32:34;;;;;;;10.20;7.97;;;;;;;12.25;90.30;96421.59;5054029;28;20221;-71
2023/04/17 05:35:17;;;;;;;9.73;7.47;;;;;;;12.31;90.25;96460.16;5089713;28;20580;-71
2023/04/17 05:37:50;;;;;;;11.50;7.90;;;;;;;12.02;90.88;96432.56;5070860;28;20212;-69
2023/04/17 05:40:21;;;;;;;12.93;7.97;;;;;;;12.07;90.73;96474.66;5071873;28;20198;-71
2023/04/17 05:42:50;;;;;;;9.77;7.60;;;;;;;12.09;91.41;96441.66;5075297;28;20243;-70
2023/04/17 05:45:21;;;;;;;14.70;9.47;;;;;;;12.15;91.07;96465.47;5058689;28;20227;-71
2023/04/17 05:47:52;;;;;;;12.10;9.00;;;;;;;11.96;91.96;96466.66;5071233;28;20225;-69
2023/04/17 05:50:20;;;;;;;16.10;11.63;;;;;;;11.69;94.11;96457.94;5070799;28;20199;-69
2023/04/17 05:52:47;;;;;;;16.20;11.67;;;;;;;11.46;94.15;96451.47;5090280;28;20278;-68
2023/04/17 05:55:16;;;;;;;15.97;11.47;;;;;;;11.38;95.44;96454.53;5054360;28;20298;-68
2023/04/17 05:57:43;;;;;;;15.50;11.27;;;;;;;11.42;96.07;96461.19;5070288;28;20259;-69
2023/04/17 06:00:12;;;;;;;16.33;11.67;;;;;;;11.57;95.18;96466.41;5087959;28;20207;-70
2023/04/17 06:02:42;;;;;;;16.17;10.57;;;;;;;11.43;95.42;96429.19;5088558;28;20223;-71
2023/04/17 06:05:20;;;;;;;16.63;11.17;;;;;;;11.68;96.42;96469.25;5061765;28;20206;-71
2023/04/17 06:07:49;;;;;;;15.20;11.83;;;;;;;11.69;95.19;96461.38;5050346;28;20213;-70
2023/04/17 06:10:16;;;;;;;15.07;9.87;;;;;;;11.71;95.21;96476.81;5088722;28;20229;-70
2023/04/17 06:12:43;;;;;;;14.43;10.67;;;;;;;11.62;95.12;96475.59;5069416;28;20198;-71
2023/04/17 06:15:11;;;;;;;23.90;14.47;;;;;;;11.66;96.13;96465.88;5052103;28;20216;-70
2023/04/17 06:17:40;;;;;;;16.10;10.93;;;;;;;11.42;95.92;96481.94;5066243;28;20676;-71
2023/04/17 06:20:11;;;;;;;18.10;12.40;;;;;;;11.35;97.18;96479.81;5049547;28;20578;-71
2023/04/17 06:22:39;;;;;;;18.07;11.87;;;;;;;11.33;97.24;96477.28;5049553;28;20240;-70
2023/04/17 06:25:07;;;;;;;14.50;11.17;;;;;;;11.38;97.98;96477.84;5067248;28;20217;-69
2023/04/17 06:27:35;;;;;;;16.50;11.50;;;;;;;11.35;98.32;96480.59;5050037;28;20210;-70
2023/04/17 06:30:05;;;;;;;24.20;14.73;;;;;;;11.51;98.59;96492.69;5050192;28;20982;-72
2023/04/17 06:32:41;;;;;;;14.17;11.37;;;;;;;11.52;98.66;96487.41;5053963;28;20215;-71
2023/04/17 06:35:10;;;;;;;18.77;12.53;;;;;;;11.73;97.71;96487.94;5068675;28;20204;-70
2023/04/17 06:37:42;;;;;;;17.70;11.70;;;;;;;11.89;96.25;96504.31;5093692;28;20624;-71
2023/04/17 06:40:13;;;;;;;16.43;11.50;;;;;;;11.86;95.64;96483.72;5069100;28;20234;-71
2023/04/17 06:42:40;;;;;;;20.10;12.83;;;;;;;11.99;95.74;96492.44;5068028;28;20306;-72
2023/04/17 06:45:11;;;;;;;15.73;11.57;;;;;;;12.10;94.32;96503.00;5066477;28;20215;-71
2023/04/17 06:47:38;;;;;;;12.63;9.47;;;;;;;11.84;95.01;96498.53;5086542;28;20204;-72
2023/04/17 06:50:08;;;;;;;14.37;10.37;;;;;;;11.84;95.54;96489.00;5086518;28;20702;-71
2023/04/17 06:52:35;;;;;;;17.23;12.60;;;;;;;11.82;97.40;96490.00;5087032;28;20189;-71
2023/04/17 06:55:02;;;;;;;14.20;11.53;;;;;;;11.60;99.28;96482.63;5086030;28;20292;-71
2023/04/17 06:57:30;;;;;;;16.73;10.67;;;;;;;11.65;99.10;96484.94;5087592;28;20864;-71
2023/04/17 06:59:57;;;;;;;13.63;10.30;;;;;;;11.58;99.65;96481.06;5086491;28;20202;-70
2023/04/17 07:02:24;;;;;;;15.70;11.87;;;;;;;11.54;98.95;96469.19;5087488;28;20742;-71
2023/04/17 07:04:53;;;;;;;14.80;10.73;;;;;;;11.60;98.92;96484.38;5086893;28;20561;-71
2023/04/17 07:07:20;;;;;;;14.20;11.87;;;;;;;11.72;98.23;96474.16;5084860;28;20329;-68
2023/04/17 07:09:47;;;;;;;16.80;12.20;;;;;;;11.62;97.64;96454.84;5076652;28;20202;-70
2023/04/17 07:12:15;;;;;;;14.80;11.40;;;;;;;11.87;97.21;96481.00;5076253;28;20197;-70
2023/04/17 07:14:42;;;;;;;17.80;13.07;;;;;;;12.12;97.48;96508.94;5084991;28;20256;-71
2023/04/17 07:17:09;;;;;;;18.90;14.17;;;;;;;12.27;97.00;96508.00;5082846;28;20214;-71
2023/04/17 07:19:36;;;;;;;20.73;14.97;;;;;;;12.38;96.79;96509.94;5086460;28;20771;-70
2023/04/17 07:22:04;;;;;;;18.27;13.60;;;;;;;12.27;95.86;96493.28;5085691;28;20263;-70
2023/04/17 07:24:33;;;;;;;17.47;14.00;;;;;;;12.39;96.00;96507.25;5086306;28;20248;-71
2023/04/17 07:27:02;;;;;;;19.50;14.20;;;;;;;12.53;95.67;96520.22;5086220;28;20659;-72
2023/04/17 07:29:30;;;;;;;19.90;16.13;;;;;;;12.53;95.95;96520.22;5086639;28;20193;-72
2023/04/17 07:31:57;;;;;;;19.37;15.27;;;;;;;12.59;95.58;96522.44;5068425;28;20241;-70
2023/04/17 07:34:24;;;;;;;19.47;14.20;;;;;;;12.59;95.96;96519.84;5085754;28;20201;-70
2023/04/17 07:36:51;;;;;;;21.73;13.63;;;;;;;12.29;96.11;96516.53;5086435;28;20204;-71
2023/04/17 07:39:18;;;;;;;14.23;11.27;;;;;;;12.39;95.18;96532.38;5085832;28;20197;-70
2023/04/17 07:41:45;;;;;;;15.10;11.30;;;;;;;12.28;95.03;96535.66;5086029;28;20194;-70
2023/04/17 07:44:12;;;;;;;18.87;12.60;;;;;;;12.19;96.88;96536.19;5085964;28;20280;-74
2023/04/17 07:46:40;;;;;;;13.97;11.40;;;;;;;12.28;96.23;96536.47;5086108;28;20680;-71
2023/04/17 07:49:09;;;;;;;18.10;13.07;;;;;;;12.25;95.22;96508.09;5085963;28;20642;-70
2023/04/17 07:51:39;;;;;;;17.23;12.33;;;;;;;12.48;94.95;96544.81;5085809;28;20214;-71
2023/04/17 07:54:07;;;;;;;18.70;14.13;;;;;;;12.73;95.19;96542.38;5086586;28;20201;-70
2023/04/17 07:56:35;;;;;;;22.20;16.90;;;;;;;12.74;95.53;96529.28;5085228;28;20266;-71
2023/04/17 07:59:02;;;;;;;21.67;14.03;;;;;;;12.94;94.90;96546.25;5086448;28;20681;-70
2023/04/17 08:01:30;;;;;;;16.57;13.40;;;;;;;13.07;94.70;96542.78;5086385;28;20206;-71
2023/04/17 08:03:57;;;;;;;16.43;11.73;;;;;;;13.17;93.50;96552.63;5086011;28;20732;-71
2023/04/17 08:06:26;;;;;;;13.07;10.23;;;;;;;12.97;93.38;96528.69;5088611;28;20255;-70
2023/04/17 08:08:53;;;;;;;10.80;8.43;;;;;;;13.08;93.01;96539.25;5090105;28;20214;-71
2023/04/17 08:11:21;;;;;;;12.27;9.43;;;;;;;13.23;92.73;96540.03;5072592;28;20206;-72
2023/04/17 08:13:48;;;;;;;12.67;9.80;;;;;;;13.16;92.78;96548.34;5089595;28;20229;-71
2023/04/17 08:16:15;;;;;;;14.27;9.77;;;;;;;13.21;93.41;96554.91;5072210;28;20229;-71
2023/04/17 08:18:42;;;;;;;17.03;10.00;;;;;;;13.15;94.41;96552.69;5089725;28;20197;-71
2023/04/17 08:21:11;;;;;;;11.23;8.73;;;;;;;13.04;94.05;96542.97;5088837;28;20720;-69
2023/04/17 08:23:39;;;;;;;9.13;7.10;;;;;;;12.99;93.87;96539.81;5088974;28;20250;-70
2023/04/17 08:26:07;;;;;;;9.77;6.63;;;;;;;12.89;94.19;96546.53;5071387;28;20616;-69
2023/04/17 08:28:34;;;;;;;9.07;6.77;;;;;;;12.83;93.15;96546.06;5090182;28;20673;-67
2023/04/17 08:31:00;;;;;;;10.77;8.10;;;;;;;12.81;94.08;96548.78;5089182;28;20198;-71
2023/04/17 08:33:27;;;;;;;14.20;9.13;;;;;;;12.67;95.00;96538.41;5090172;28;20200;-70
2023/04/17 08:35:55;;;;;;;16.37;9.43;;;;;;;12.36;95.84;96523.03;5089273;28;20282;-71
2023/04/17 08:38:21;;;;;;;9.43;7.63;;;;;;;12.32;95.97;96537.13;5089775;28;20203;-68
2023/04/17 08:40:52;;;;;;;16.37;11.00;;;;;;;12.24;96.68;96528.97;5090022;28;20201;-69
2023/04/17 08:43:21;;;;;;;13.43;10.93;;;;;;;12.53;95.65;96530.59;5089103;28;20326;-70
2023/04/17 08:45:52;;;;;;;12.27;9.40;;;;;;;12.78;94.60;96533.34;5072044;28;20580;-70
2023/04/17 08:48:21;;;;;;;16.60;13.20;;;;;;;13.06;93.88;96533.31;5088881;28;20379;-71
2023/04/17 08:50:51;;;;;;;16.17;12.43;;;;;;;13.08;92.79;96528.84;5089606;28;20618;-70
2023/04/17 08:53:40;;;;;;;11.97;10.33;;;;;;;13.30;92.97;96530.91;5089312;28;20636;-70
2023/04/17 08:56:08;;;;;;;20.17;11.30;;;;;;;13.34;93.09;96531.56;5070823;28;20230;-72
2023/04/17 08:58:35;;;;;;;11.83;8.77;;;;;;;13.50;91.21;96524.41;5089289;28;20675;-69
2023/04/17 09:01:10;;;;;;;10.43;8.17;;;;;;;13.74;91.84;96528.88;5081897;28;20257;-71
2023/04/17 09:03:42;;;;;;;6.80;5.50;;;;;;;13.65;90.14;96534.66;5075599;28;20219;-71
2023/04/17 09:06:10;;;;;;;7.47;5.73;;;;;;;13.77;90.23;96538.22;5080177;28;20210;-70
2023/04/17 09:08:38;;;;;;;7.13;5.47;;;;;;;13.49;89.74;96520.16;5088841;28;20703;-70
2023/04/17 09:11:16;;;;;;;6.80;5.53;;;;;;;13.55;89.63;96522.34;5088157;28;20202;-71
2023/04/17 09:13:43;;;;;;;6.47;5.50;;;;;;;13.63;89.84;96520.09;5084915;28;20230;-71
2023/04/17 09:16:12;;;;;;;8.53;6.40;;;;;;;13.63;90.06;96520.91;5089304;28;20196;-70
2023/04/17 09:18:43;;;;;;;7.90;6.13;;;;;;;13.88;89.94;96526.16;5086851;28;20803;-70
2023/04/17 09:21:11;;;;;;;8.07;5.30;;;;;;;13.96;88.32;96530.84;5089263;28;20214;-70
2023/04/17 09:23:51;;;;;;;7.97;6.53;;;;;;;13.87;88.68;96524.50;5088673;28;20239;-70
2023/04/17 09:26:25;;;;;;;8.17;6.97;;;;;;;13.99;90.06;96520.25;5070325;28;20235;-70
2023/04/17 09:29:10;;;;;;;7.23;5.80;;;;;;;13.76;88.95;96529.59;5088866;28;20190;-70
2023/04/17 09:31:40;;;;;;;7.00;5.70;;;;;;;14.02;87.61;96524.38;5088171;28;20203;-71
2023/04/17 09:34:12;;;;;;;6.63;5.10;;;;;;;13.97;87.54;96523.88;5088794;28;20202;-70
2023/04/17 09:36:41;;;;;;;5.97;5.00;;;;;;;14.04;87.01;96520.75;5088232;28;20234;-71
2023/04/17 09:39:17;;;;;;;6.40;4.90;;;;;;;14.23;86.73;96528.16;5088306;28;20687;-70
2023/04/17 09:41:45;;;;;;;6.77;5.90;;;;;;;14.41;86.78;96522.53;5070606;28;20190;-71
2023/04/17 09:44:25;;;;;;;10.57;7.80;;;;;;;14.07;87.33;96528.38;5087932;28;20224;-70
2023/04/17 09:46:53;;;;;;;10.23;8.90;;;;;;;14.19;86.80;96530.13;5088525;28;20207;-70
2023/04/17 09:49:38;;;;;;;14.57;12.20;;;;;;;14.06;86.51;96539.72;5087938;28;20751;-70
2023/04/17 09:52:05;;;;;;;18.90;14.73;;;;;;;13.91;86.72;96532.91;5087989;28;20254;-70
2023/04/17 09:54:36;;;;;;;13.87;11.40;;;;;;;13.87;86.29;96529.69;5070448;28;20727;-70
2023/04/17 09:57:09;;;;;;;7.43;6.47;;;;;;;13.67;86.81;96521.53;5087639;28;20213;-70
2023/04/17 09:59:40;;;;;;;7.13;6.10;;;;;;;13.56;86.46;96524.03;5088522;28;20558;-71
2023/04/17 10:02:08;;;;;;;9.73;7.80;;;;;;;13.47;87.43;96504.66;5087912;28;20207;-70
2023/04/17 10:04:40;;;;;;;7.27;5.80;;;;;;;13.42;87.25;96526.69;5088683;28;20251;-71
2023/04/17 10:07:07;;;;;;;6.53;5.83;;;;;;;13.41;87.67;96519.84;5087857;28;20196;-70
2023/04/17 10:09:34;;;;;;;6.20;5.37;;;;;;;13.51;88.62;96518.28;5087713;28;20632;-71
2023/04/17 10:12:03;;;;;;;7.80;5.77;;;;;;;13.55;88.90;96517.16;5087915;28;20698;-70
2023/04/17 10:14:32;;;;;;;6.63;5.17;;;;;;;13.58;89.00;96516.97;5087884;28;20562;-71
2023/04/17 10:17:23;;;;;;;7.07;5.40;;;;;;;13.50;89.46;96519.22;5088092;28;20291;-71
2023/04/17 10:19:51;;;;;;;7.90;5.63;;;;;;;13.54;89.80;96505.09;5069322;28;20203;-70
2023/04/17 10:22:27;;;;;;;17.10;5.27;;;;;;;13.62;89.31;96514.03;5084551;28;20235;-70
2023/04/17 10:25:16;;;;;;;7.63;4.93;;;;;;;13.68;89.34;96516.22;5087829;28;20226;-72
2023/04/17 10:27:45;;;;;;;6.27;5.40;;;;;;;13.56;88.51;96505.81;5087002;28;20211;-70
2023/04/17 10:30:13;;;;;;;7.20;5.80;;;;;;;13.29;87.72;96507.63;5088005;28;20199;-71
2023/04/17 10:33:11;;;;;;;8.20;4.90;;;;;;;13.24;88.58;96517.47;5087423;28;20215;-71
2023/04/17 10:35:39;;;;;;;5.17;4.67;;;;;;;13.15;87.73;96511.09;5068996;28;20193;-69
2023/04/17 10:38:48;;;;;;;11.77;7.90;;;;;;;13.12;88.51;96523.47;5068554;28;20225;-69
2023/04/17 10:41:26;;;;;;;6.07;4.10;;;;;;;13.05;89.71;96507.44;5087423;28;20216;-69
2023/04/17 10:43:56;;;;;;;7.57;5.50;;;;;;;13.00;88.90;96509.47;5087284;28;20274;-68
2023/04/17 10:46:25;;;;;;;14.37;8.17;;;;;;;13.12;89.83;96507.88;5072757;28;20206;-70
2023/04/17 10:48:52;;;;;;;7.07;5.37;;;;;;;13.17;88.78;96514.44;5068671;28;20289;-72
2023/04/17 10:53:50;;;;;;;6.60;4.93;;;;;;;13.12;89.08;96513.06;5067631;28;20284;-71
2023/04/17 10:56:22;;;;;;;7.60;5.27;;;;;;;13.05;88.56;96508.25;5067323;28;20206;-71
2023/04/17 10:59:00;;;;;;;6.47;5.03;;;;;;;13.20;88.58;96514.25;5066870;28;21171;-71
2023/04/17 11:01:37;;;;;;;3.93;3.53;;;;;;;13.03;88.45;96504.91;5066809;28;20232;-71
2023/04/17 11:04:04;;;;;;;7.87;6.53;;;;;;;13.02;89.00;96503.22;5049235;28;20227;-71
2023/04/17 11:06:38;;;;;;;8.97;6.73;;;;;;;13.18;89.48;96507.47;5066224;28;20579;-71
2023/04/17 11:09:09;;;;;;;6.37;5.27;;;;;;;13.12;89.76;96511.31;5082961;28;20200;-71
2023/04/17 11:11:39;;;;;;;7.93;4.70;;;;;;;13.02;90.65;96508.41;5086514;28;20205;-71
2023/04/17 11:14:17;;;;;;;5.67;4.40;;;;;;;13.03;90.54;96517.06;5086625;28;20194;-70
2023/04/17 11:16:46;;;;;;;6.57;5.03;;;;;;;12.84;91.11;96500.94;5099175;28;20202;-71
2023/04/17 11:19:21;;;;;;;7.87;5.47;;;;;;;12.85;91.66;96506.06;5066149;28;20284;-71
2023/04/17 11:21:50;;;;;;;7.63;5.70;;;;;;;12.79;91.70;96497.81;5066827;28;20272;-70
2023/04/17 11:24:29;;;;;;;9.90;7.30;;;;;;;12.85;91.48;96490.47;5066021;28;20250;-71
2023/04/17 11:27:02;;;;;;;7.83;5.77;;;;;;;12.75;90.91;96505.00;5066258;28;20207;-71
2023/04/17 11:29:30;;;;;;;7.23;6.07;;;;;;;12.83;90.86;96487.16;5066181;28;20702;-70
2023/04/17 11:31:59;;;;;;;8.43;6.73;;;;;;;13.03;90.82;96497.09;5067169;28;20201;-71
2023/04/17 11:35:07;;;;;;;8.93;6.53;;;;;;;13.05;89.89;96502.22;5073367;28;20573;-70
2023/04/17 11:38:27;;;;;;;12.50;9.27;;;;;;;13.10;90.11;96494.97;5065177;28;20413;-71
2023/04/17 11:40:57;;;;;;;12.07;8.93;;;;;;;13.22;90.24;96491.59;5065231;28;20222;-71